createdAt,value
2023-04-30T00:01:14.614Z,13.25
2023-04-30T00:03:41.871Z,22.65
2023-04-30T00:06:09.090Z,12.05
2023-04-30T00:08:36.275Z,12.35
2023-04-30T00:11:03.335Z,13.50
2023-04-30T00:13:30.466Z,11.43
2023-04-30T00:15:57.625Z,10.75
2023-04-30T00:18:24.732Z,12.32
2023-04-30T00:20:53.547Z,12.98
2023-04-30T00:23:20.627Z,12.15
2023-04-30T00:25:47.831Z,12.65
2023-04-30T00:28:14.912Z,12.15
2023-04-30T00:30:41.959Z,12.00
2023-04-30T00:33:09.060Z,14.63
2023-04-30T00:35:36.153Z,14.68
2023-04-30T00:38:03.241Z,13.07
2023-04-30T00:40:30.585Z,14.85
2023-04-30T00:42:57.784Z,16.10
2023-04-30T00:45:24.872Z,15.52
2023-04-30T00:47:52.275Z,19.40
2023-04-30T00:50:20.006Z,16.58
2023-04-30T00:52:47.172Z,17.42
2023-04-30T00:55:14.679Z,16.80
2023-04-30T00:57:41.860Z,15.07
2023-04-30T01:00:13.532Z,17.25
2023-04-30T01:02:41.495Z,16.10
2023-04-30T01:05:09.505Z,17.90
2023-04-30T01:07:39.520Z,21.05
2023-04-30T01:10:07.957Z,18.15
2023-04-30T01:13:04.171Z,20.77
2023-04-30T01:15:53.428Z,20.38
2023-04-30T01:18:36.598Z,18.70
2023-04-30T01:21:06.254Z,19.52
2023-04-30T01:23:36.019Z,24.05
2023-04-30T01:26:38.018Z,21.05
2023-04-30T01:29:06.955Z,28.08
2023-04-30T01:31:34.038Z,19.17
2023-04-30T01:34:01.193Z,19.05
2023-04-30T01:37:10.579Z,20.65
2023-04-30T01:40:11.586Z,20.90
2023-04-30T01:43:01.355Z,18.52
2023-04-30T01:46:15.936Z,19.58
2023-04-30T01:49:08.436Z,23.30
2023-04-30T01:51:47.339Z,18.67
2023-04-30T01:54:37.223Z,21.33
2023-04-30T01:57:08.112Z,23.92
2023-04-30T01:59:38.615Z,22.13
2023-04-30T02:02:07.132Z,22.45
2023-04-30T02:04:34.483Z,24.27
2023-04-30T02:07:01.678Z,20.90
2023-04-30T02:09:28.973Z,24.42
2023-04-30T02:11:57.883Z,24.15
2023-04-30T02:14:25.377Z,23.35
2023-04-30T02:16:52.465Z,22.50
2023-04-30T02:19:19.518Z,20.23
2023-04-30T02:21:46.745Z,26.30
2023-04-30T02:24:13.806Z,24.08
2023-04-30T02:26:40.869Z,22.30
2023-04-30T02:29:07.991Z,26.73
2023-04-30T02:31:35.089Z,26.08
2023-04-30T02:34:02.215Z,25.55
2023-04-30T02:36:29.633Z,31.63
2023-04-30T02:38:56.748Z,24.50
2023-04-30T02:41:23.893Z,22.00
2023-04-30T02:43:51.699Z,26.92
2023-04-30T02:46:19.305Z,29.80
2023-04-30T02:48:46.393Z,25.15
2023-04-30T02:51:13.438Z,23.27
2023-04-30T02:53:40.708Z,27.60
2023-04-30T02:56:08.353Z,29.42
2023-04-30T02:58:35.918Z,30.73
2023-04-30T03:01:03.483Z,26.13
2023-04-30T03:03:30.669Z,25.73
2023-04-30T03:05:59.553Z,29.02
2023-04-30T03:08:27.507Z,30.10
2023-04-30T03:10:54.696Z,31.15
2023-04-30T03:13:21.902Z,28.90
2023-04-30T03:15:48.971Z,29.73
2023-04-30T03:18:16.141Z,26.25
2023-04-30T03:20:43.244Z,27.13
2023-04-30T03:23:10.307Z,32.10
2023-04-30T03:25:37.396Z,29.38
2023-04-30T03:28:04.803Z,27.42
2023-04-30T03:30:31.936Z,27.70
2023-04-30T03:32:59.016Z,33.33
2023-04-30T03:35:26.226Z,26.77
2023-04-30T03:37:53.433Z,26.05
2023-04-30T03:40:20.692Z,29.00
2023-04-30T03:42:48.913Z,27.58
2023-04-30T03:45:18.122Z,30.58
2023-04-30T03:47:45.438Z,27.77
2023-04-30T03:50:12.755Z,27.77
2023-04-30T03:52:39.987Z,30.42
2023-04-30T03:55:07.582Z,30.40
2023-04-30T03:57:34.706Z,34.85
2023-04-30T04:00:02.184Z,26.08
2023-04-30T04:02:31.907Z,31.20
2023-04-30T04:04:59.178Z,26.98
2023-04-30T04:07:26.342Z,30.58
2023-04-30T04:09:53.495Z,29.38
2023-04-30T04:12:20.678Z,29.50
2023-04-30T04:14:47.837Z,34.83
2023-04-30T04:17:14.887Z,27.58
2023-04-30T04:19:41.975Z,26.27
2023-04-30T04:22:09.053Z,28.63
2023-04-30T04:24:36.608Z,25.63
2023-04-30T04:27:04.229Z,28.83
2023-04-30T04:29:32.239Z,27.60
2023-04-30T04:32:02.751Z,25.27
2023-04-30T04:34:29.838Z,29.45
2023-04-30T04:36:58.266Z,25.50
2023-04-30T04:39:25.420Z,25.13
2023-04-30T04:41:53.018Z,24.50
2023-04-30T04:44:20.355Z,26.67
2023-04-30T04:46:47.481Z,26.98
2023-04-30T04:49:17.597Z,27.92
2023-04-30T04:51:44.694Z,26.33
2023-04-30T04:54:11.828Z,27.05
2023-04-30T04:56:41.773Z,22.80
2023-04-30T04:59:08.859Z,23.95
2023-04-30T05:01:36.541Z,22.65
2023-04-30T05:04:03.889Z,25.85
2023-04-30T05:06:32.243Z,25.05
2023-04-30T05:08:59.546Z,23.85
2023-04-30T05:11:29.273Z,24.95
2023-04-30T05:13:58.254Z,22.02
2023-04-30T05:16:26.576Z,22.45
2023-04-30T05:18:53.640Z,25.13
2023-04-30T05:21:20.733Z,21.63
2023-04-30T05:23:47.790Z,22.92
2023-04-30T05:26:14.891Z,21.98
2023-04-30T05:28:43.081Z,22.77
2023-04-30T05:31:10.188Z,26.55
2023-04-30T05:33:37.243Z,28.52
2023-04-30T05:36:04.814Z,22.70
2023-04-30T05:38:31.924Z,19.52
2023-04-30T05:41:00.483Z,21.55
2023-04-30T05:43:27.570Z,22.00
2023-04-30T05:45:54.685Z,22.60
2023-04-30T05:48:21.780Z,22.42
2023-04-30T05:50:48.859Z,21.13
2023-04-30T05:53:15.911Z,23.95
2023-04-30T05:55:42.999Z,22.48
2023-04-30T05:58:10.060Z,20.80
2023-04-30T06:00:37.883Z,22.77
2023-04-30T06:03:05.029Z,20.63
2023-04-30T06:05:32.182Z,19.08
2023-04-30T06:07:59.286Z,22.63
2023-04-30T06:10:26.791Z,23.85
2023-04-30T06:12:53.970Z,20.60
2023-04-30T06:15:22.021Z,19.30
2023-04-30T06:17:49.069Z,19.30
2023-04-30T06:20:16.397Z,21.85
2023-04-30T06:22:43.516Z,17.25
2023-04-30T06:25:10.747Z,20.13
2023-04-30T06:27:37.896Z,21.02
2023-04-30T06:30:05.796Z,21.48
2023-04-30T06:32:33.115Z,18.08
2023-04-30T06:35:00.300Z,22.60
2023-04-30T06:37:28.389Z,19.80
2023-04-30T06:39:55.734Z,16.77
2023-04-30T06:42:23.088Z,20.20
2023-04-30T06:44:50.207Z,22.20
2023-04-30T06:47:17.374Z,18.00
2023-04-30T06:49:44.456Z,18.95
2023-04-30T06:52:11.545Z,17.05
2023-04-30T06:54:38.598Z,17.63
2023-04-30T06:57:05.773Z,24.00
2023-04-30T06:59:33.040Z,13.75
2023-04-30T07:02:00.192Z,20.80
2023-04-30T07:04:27.849Z,17.58
2023-04-30T07:06:54.926Z,15.02
2023-04-30T07:09:21.982Z,17.98
2023-04-30T07:11:49.301Z,12.95
2023-04-30T07:14:16.366Z,16.35
2023-04-30T07:16:43.839Z,18.77
2023-04-30T07:19:10.889Z,13.15
2023-04-30T07:21:38.022Z,12.93
2023-04-30T07:24:05.690Z,14.23
2023-04-30T07:26:32.862Z,9.32
2023-04-30T07:28:59.902Z,10.38
2023-04-30T07:31:27.134Z,9.52
2023-04-30T07:33:55.887Z,14.07
2023-04-30T07:36:23.202Z,9.27
2023-04-30T07:38:50.371Z,14.85
2023-04-30T07:41:17.482Z,10.80
2023-04-30T07:43:44.666Z,9.20
2023-04-30T07:46:11.966Z,11.40
2023-04-30T07:48:39.140Z,15.15
2023-04-30T07:51:06.308Z,11.88
2023-04-30T07:53:33.397Z,10.80
2023-04-30T07:56:00.490Z,12.23
2023-04-30T07:58:27.649Z,11.73
2023-04-30T08:00:54.730Z,16.10
2023-04-30T08:03:22.064Z,20.45
2023-04-30T08:05:49.285Z,15.05
2023-04-30T08:08:16.375Z,11.55
2023-04-30T08:10:43.719Z,13.98
2023-04-30T08:13:11.185Z,14.75
2023-04-30T08:15:40.050Z,9.95
2023-04-30T08:18:07.452Z,12.95
2023-04-30T08:20:35.996Z,12.55
2023-04-30T08:23:03.722Z,10.60
2023-04-30T08:25:31.972Z,13.35
2023-04-30T08:27:59.788Z,10.52
2023-04-30T08:30:26.869Z,8.80
2023-04-30T08:32:56.774Z,15.05
2023-04-30T08:35:24.980Z,11.02
2023-04-30T08:37:53.252Z,11.70
2023-04-30T08:40:21.991Z,15.07
2023-04-30T08:43:11.870Z,12.05
2023-04-30T08:45:39.146Z,11.43
2023-04-30T08:48:16.475Z,11.10
2023-04-30T08:50:43.689Z,11.30
2023-04-30T08:53:13.250Z,9.30
2023-04-30T08:55:41.017Z,10.73
2023-04-30T08:58:10.785Z,14.40
2023-04-30T09:00:39.880Z,7.57
2023-04-30T09:03:08.584Z,12.48
2023-04-30T09:05:38.486Z,10.68
2023-04-30T09:08:11.320Z,16.05
2023-04-30T09:10:39.077Z,12.73
2023-04-30T09:13:09.339Z,10.45
2023-04-30T09:15:41.742Z,10.45
2023-04-30T09:18:17.441Z,10.38
2023-04-30T09:23:26.536Z,10.93
2023-04-30T09:25:53.965Z,10.73
2023-04-30T09:28:26.474Z,8.68
2023-04-30T09:30:55.860Z,12.70
2023-04-30T09:33:23.136Z,12.57
2023-04-30T09:35:50.441Z,14.23
2023-04-30T09:38:33.109Z,8.90
2023-04-30T09:41:01.979Z,6.95
2023-04-30T09:43:29.881Z,8.90
2023-04-30T09:46:00.311Z,11.00
2023-04-30T09:48:31.651Z,9.18
2023-04-30T09:50:58.904Z,9.52
2023-04-30T09:53:27.072Z,7.22
2023-04-30T09:55:58.517Z,8.75
2023-04-30T09:58:29.285Z,10.25
2023-04-30T10:01:00.018Z,7.70
2023-04-30T10:03:27.427Z,13.25
2023-04-30T10:05:55.693Z,7.90
2023-04-30T10:08:43.611Z,12.32
2023-04-30T10:11:16.758Z,7.57
2023-04-30T10:13:46.363Z,8.95
2023-04-30T10:16:46.155Z,9.32
2023-04-30T10:19:36.383Z,8.45
2023-04-30T10:22:04.065Z,7.80
2023-04-30T10:24:31.384Z,7.15
2023-04-30T10:26:58.625Z,8.93
2023-04-30T10:29:25.938Z,7.35
2023-04-30T10:31:54.762Z,7.53
2023-04-30T10:34:32.973Z,13.82
2023-04-30T10:37:11.767Z,9.98
2023-04-30T10:39:39.191Z,6.38
2023-04-30T10:42:10.002Z,9.45
2023-04-30T10:44:38.440Z,13.45
2023-04-30T10:47:07.065Z,7.47
2023-04-30T10:49:35.000Z,8.18
2023-04-30T10:52:05.043Z,8.02
2023-04-30T10:54:37.316Z,7.32
2023-04-30T10:57:12.736Z,8.55
2023-04-30T10:59:47.431Z,6.63
2023-04-30T11:02:20.009Z,8.10
2023-04-30T11:05:18.096Z,9.80
2023-04-30T11:07:58.466Z,11.65
2023-04-30T11:10:32.171Z,6.35
2023-04-30T11:13:06.103Z,7.88
2023-04-30T11:15:42.312Z,7.97
2023-04-30T11:18:09.933Z,9.15
2023-04-30T11:20:42.286Z,9.52
2023-04-30T11:23:22.108Z,10.63
2023-04-30T11:26:01.628Z,13.57
2023-04-30T11:28:30.995Z,10.23
2023-04-30T11:31:00.537Z,10.05
2023-04-30T11:33:30.282Z,9.15
2023-04-30T11:35:59.516Z,7.32
2023-04-30T11:38:27.531Z,16.00
2023-04-30T11:40:55.481Z,8.55
2023-04-30T11:43:33.777Z,9.45
2023-04-30T11:46:11.988Z,10.98
2023-04-30T11:48:44.819Z,8.68
2023-04-30T11:51:24.996Z,8.73
2023-04-30T11:53:53.442Z,14.30
2023-04-30T11:56:22.577Z,11.00
2023-04-30T11:58:51.650Z,12.07
2023-04-30T12:01:20.208Z,11.68
2023-04-30T12:03:50.438Z,10.65
2023-04-30T12:06:28.856Z,10.23
2023-04-30T12:08:58.683Z,11.60
2023-04-30T12:11:28.440Z,13.00
2023-04-30T12:14:12.600Z,6.90
2023-04-30T12:16:53.260Z,9.05
2023-04-30T12:19:25.182Z,7.90
2023-04-30T12:21:55.134Z,4.53
2023-04-30T12:24:23.783Z,7.57
2023-04-30T12:26:54.164Z,6.60
2023-04-30T12:29:25.021Z,10.57
2023-04-30T12:31:52.458Z,10.15
2023-04-30T12:34:19.695Z,8.68
2023-04-30T12:36:46.927Z,6.05
2023-04-30T12:39:16.439Z,6.43
2023-04-30T12:41:50.365Z,6.18
2023-04-30T12:44:19.041Z,11.43
2023-04-30T12:46:51.357Z,7.10
2023-04-30T12:49:30.593Z,7.05
2023-04-30T12:52:11.501Z,7.85
2023-04-30T12:54:39.709Z,7.90
2023-04-30T12:57:12.430Z,11.30
2023-04-30T12:59:51.783Z,6.28
2023-04-30T13:02:19.072Z,14.32
2023-04-30T13:04:46.330Z,9.73
2023-04-30T13:07:13.645Z,14.13
2023-04-30T13:09:41.144Z,8.10
2023-04-30T13:12:08.689Z,9.52
2023-04-30T13:14:36.599Z,6.45
2023-04-30T13:17:06.827Z,6.10
2023-04-30T13:19:34.830Z,8.27
2023-04-30T13:22:02.006Z,12.20
2023-04-30T13:24:29.150Z,6.85
2023-04-30T13:26:57.842Z,6.32
2023-04-30T13:29:25.433Z,11.48
2023-04-30T13:31:52.744Z,7.75
2023-04-30T13:34:20.060Z,8.52
2023-04-30T13:36:47.229Z,7.05
2023-04-30T13:39:14.412Z,5.25
2023-04-30T13:41:41.467Z,6.18
2023-04-30T13:44:08.617Z,22.15
2023-04-30T13:46:36.148Z,7.30
2023-04-30T13:49:03.699Z,6.90
2023-04-30T13:51:33.286Z,7.88
2023-04-30T13:54:00.476Z,7.40
2023-04-30T13:56:30.121Z,9.38
2023-04-30T13:58:57.185Z,6.60
2023-04-30T14:01:24.531Z,9.65
2023-04-30T14:03:51.830Z,7.95
2023-04-30T14:06:19.066Z,5.90
2023-04-30T14:08:46.221Z,6.82
2023-04-30T14:11:13.321Z,6.88
2023-04-30T14:13:41.502Z,8.27
2023-04-30T14:16:08.890Z,8.10
2023-04-30T14:18:36.038Z,9.02
2023-04-30T14:21:03.315Z,8.95
2023-04-30T14:23:30.510Z,9.70
2023-04-30T14:25:57.757Z,9.13
2023-04-30T14:28:24.970Z,9.15
2023-04-30T14:30:52.038Z,8.63
2023-04-30T14:33:19.107Z,13.60
2023-04-30T14:35:49.039Z,7.65
2023-04-30T14:38:16.191Z,7.35
2023-04-30T14:40:44.774Z,5.47
2023-04-30T14:43:12.028Z,7.47
2023-04-30T14:45:40.435Z,6.28
2023-04-30T14:48:07.824Z,6.55
2023-04-30T14:50:35.175Z,7.35
2023-04-30T14:53:04.248Z,6.18
2023-04-30T14:55:32.628Z,7.20
2023-04-30T14:58:00.692Z,5.50
2023-04-30T15:00:29.158Z,11.07
2023-04-30T15:02:56.348Z,5.47
2023-04-30T15:05:23.610Z,4.25
2023-04-30T15:07:52.703Z,6.25
2023-04-30T15:10:19.894Z,6.03
2023-04-30T15:12:46.959Z,5.97
2023-04-30T15:15:14.236Z,4.25
2023-04-30T15:17:41.685Z,9.15
2023-04-30T15:20:09.362Z,4.15
2023-04-30T15:22:36.765Z,4.40
2023-04-30T15:25:05.475Z,5.25
2023-04-30T15:27:33.936Z,3.95
2023-04-30T15:30:01.264Z,4.20
2023-04-30T15:32:28.360Z,4.28
2023-04-30T15:34:55.496Z,5.05
2023-04-30T15:37:22.611Z,3.63
2023-04-30T15:39:49.896Z,4.05
2023-04-30T15:42:17.164Z,4.13
2023-04-30T15:44:44.349Z,3.97
2023-04-30T15:47:12.740Z,8.13
2023-04-30T15:49:39.944Z,7.80
2023-04-30T15:52:07.190Z,4.05
2023-04-30T15:54:34.289Z,3.60
2023-04-30T15:57:02.210Z,4.00
2023-04-30T15:59:29.436Z,4.30
2023-04-30T16:01:56.656Z,3.75
2023-04-30T16:04:23.765Z,5.93
2023-04-30T16:06:51.272Z,7.25
2023-04-30T16:09:20.477Z,6.43
2023-04-30T16:11:48.430Z,4.40
2023-04-30T16:14:15.605Z,3.75
2023-04-30T16:16:42.866Z,5.72
2023-04-30T16:19:12.666Z,4.97
2023-04-30T16:21:40.607Z,3.83
2023-04-30T16:24:09.700Z,3.53
2023-04-30T16:26:37.479Z,4.88
2023-04-30T16:29:05.104Z,4.32
2023-04-30T16:31:32.844Z,6.07
2023-04-30T16:34:00.095Z,3.15
2023-04-30T16:36:28.119Z,4.72
2023-04-30T16:38:55.467Z,4.60
2023-04-30T16:41:22.666Z,6.55
2023-04-30T16:43:49.784Z,4.65
2023-04-30T16:46:17.729Z,6.68
2023-04-30T16:48:45.476Z,5.50
2023-04-30T16:51:13.871Z,3.67
2023-04-30T16:53:41.297Z,6.05
2023-04-30T16:56:08.804Z,6.15
2023-04-30T16:58:36.008Z,10.60
2023-04-30T17:01:03.668Z,5.43
2023-04-30T17:03:31.089Z,13.00
2023-04-30T17:05:58.308Z,4.20
2023-04-30T17:08:26.093Z,7.75
2023-04-30T17:10:53.623Z,3.92
2023-04-30T17:13:20.956Z,5.30
2023-04-30T17:15:49.082Z,5.75
2023-04-30T17:18:16.657Z,4.90
2023-04-30T17:20:45.644Z,4.65
2023-04-30T17:23:13.179Z,11.60
2023-04-30T17:25:40.608Z,4.10
2023-04-30T17:28:07.916Z,7.00
2023-04-30T17:30:36.483Z,3.42
2023-04-30T17:33:04.709Z,5.88
2023-04-30T17:35:32.123Z,4.30
2023-04-30T17:37:59.806Z,4.35
2023-04-30T17:40:27.628Z,7.32
2023-04-30T17:42:54.932Z,4.57
2023-04-30T17:45:23.390Z,7.15
2023-04-30T17:47:51.075Z,6.18
2023-04-30T17:50:19.049Z,4.47
2023-04-30T17:52:47.091Z,4.05
2023-04-30T17:55:15.403Z,7.40
2023-04-30T17:57:43.461Z,6.00
2023-04-30T18:00:12.208Z,8.77
2023-04-30T18:02:40.054Z,5.97
2023-04-30T18:05:08.866Z,7.38
2023-04-30T18:07:36.462Z,7.03
2023-04-30T18:10:04.688Z,4.82
2023-04-30T18:12:32.283Z,9.63
2023-04-30T18:14:59.569Z,11.23
2023-04-30T18:17:26.963Z,6.57
2023-04-30T18:19:54.860Z,4.57
2023-04-30T18:22:22.545Z,5.60
2023-04-30T18:24:50.322Z,7.75
2023-04-30T18:27:17.979Z,6.70
2023-04-30T18:29:45.604Z,9.48
2023-04-30T18:32:12.794Z,10.55
2023-04-30T18:34:40.307Z,7.75
2023-04-30T18:37:07.584Z,4.40
2023-04-30T18:39:35.084Z,6.57
2023-04-30T18:42:04.043Z,6.18
2023-04-30T18:44:32.715Z,5.93
2023-04-30T18:47:00.484Z,10.63
2023-04-30T18:49:28.050Z,7.05
2023-04-30T18:51:55.418Z,6.80
2023-04-30T18:54:23.606Z,5.63
2023-04-30T18:56:51.679Z,7.60
2023-04-30T18:59:21.147Z,7.03
2023-04-30T19:01:52.163Z,5.93
2023-04-30T19:04:19.470Z,6.82
2023-04-30T19:06:49.712Z,8.30
2023-04-30T19:09:17.793Z,6.72
2023-04-30T19:11:45.639Z,5.30
2023-04-30T19:14:13.361Z,7.78
2023-04-30T19:16:41.105Z,5.85
2023-04-30T19:19:08.854Z,6.57
2023-04-30T19:21:36.471Z,6.15
2023-04-30T19:24:04.353Z,6.95
2023-04-30T19:26:34.207Z,7.68
2023-04-30T19:29:03.845Z,9.15
2023-04-30T19:31:31.981Z,11.68
2023-04-30T19:34:01.580Z,8.00
2023-04-30T19:36:29.730Z,8.32
2023-04-30T19:38:59.225Z,7.03
2023-04-30T19:41:28.328Z,15.23
2023-04-30T19:43:56.972Z,10.00
2023-04-30T19:46:25.325Z,19.20
2023-04-30T19:48:53.338Z,12.07
2023-04-30T19:51:21.024Z,13.93
2023-04-30T19:53:52.714Z,14.73
2023-04-30T19:56:23.944Z,12.07
2023-04-30T19:58:52.042Z,12.57
2023-04-30T20:01:20.257Z,11.48
2023-04-30T20:03:48.181Z,14.00
2023-04-30T20:06:15.720Z,17.48
2023-04-30T20:08:43.653Z,12.18
2023-04-30T20:11:11.293Z,12.98
2023-04-30T20:13:38.777Z,13.27
2023-04-30T20:16:06.339Z,12.70
2023-04-30T20:18:34.322Z,14.88
2023-04-30T20:21:02.151Z,15.27
2023-04-30T20:23:29.946Z,14.77
2023-04-30T20:25:58.621Z,14.23
2023-04-30T20:28:27.583Z,15.43
2023-04-30T20:30:56.256Z,13.23
2023-04-30T20:33:26.041Z,19.02
2023-04-30T20:35:53.250Z,18.13
2023-04-30T20:38:21.790Z,12.27
2023-04-30T20:40:49.306Z,15.88
2023-04-30T20:43:18.473Z,15.68
2023-04-30T20:45:46.898Z,13.82
2023-04-30T20:48:14.936Z,14.55
2023-04-30T20:50:42.646Z,13.90
2023-04-30T20:53:11.349Z,12.98
2023-04-30T20:55:38.704Z,14.75
2023-04-30T20:58:05.921Z,14.07
2023-04-30T21:00:33.019Z,15.40
2023-04-30T21:03:00.155Z,14.52
2023-04-30T21:05:28.658Z,13.50
2023-04-30T21:08:01.017Z,13.60
2023-04-30T21:10:35.342Z,11.00
2023-04-30T21:13:05.401Z,14.43
2023-04-30T21:15:36.329Z,10.63
2023-04-30T21:18:03.942Z,11.00
2023-04-30T21:20:32.042Z,11.43
2023-04-30T21:22:59.362Z,15.85
2023-04-30T21:25:26.782Z,13.25
2023-04-30T21:27:53.842Z,15.40
2023-04-30T21:30:24.234Z,12.98
2023-04-30T21:32:58.065Z,10.40
2023-04-30T21:35:25.967Z,12.43
2023-04-30T21:37:53.680Z,13.82
2023-04-30T21:40:22.000Z,13.43
2023-04-30T21:42:49.106Z,15.00
2023-04-30T21:45:16.343Z,11.98
2023-04-30T21:47:44.763Z,9.63
2023-04-30T21:50:12.363Z,16.45
2023-04-30T21:52:39.603Z,10.10
2023-04-30T21:55:07.910Z,11.30
2023-04-30T21:57:35.566Z,9.18
2023-04-30T22:00:04.582Z,8.18
2023-04-30T22:02:33.130Z,7.35
2023-04-30T22:05:00.959Z,8.75
2023-04-30T22:07:28.203Z,8.40
2023-04-30T22:09:55.791Z,10.73
2023-04-30T22:12:25.221Z,12.88
2023-04-30T22:14:55.679Z,12.82
2023-04-30T22:17:23.130Z,10.77
2023-04-30T22:19:50.427Z,9.68
2023-04-30T22:22:17.663Z,10.43
2023-04-30T22:24:44.743Z,12.02
2023-04-30T22:27:12.118Z,10.10
2023-04-30T22:29:39.190Z,8.50
2023-04-30T22:32:07.224Z,9.50
2023-04-30T22:34:40.036Z,9.23
2023-04-30T22:37:10.964Z,17.17
2023-04-30T22:39:39.013Z,15.95
2023-04-30T22:42:06.306Z,9.13
2023-04-30T22:44:33.709Z,8.65
2023-04-30T22:47:02.520Z,10.57
2023-04-30T22:49:33.012Z,10.38
2023-04-30T22:52:01.355Z,11.52
2023-04-30T22:54:28.891Z,10.30
2023-04-30T22:56:55.986Z,12.35
2023-04-30T22:59:23.140Z,11.20
2023-04-30T23:01:50.273Z,7.53
2023-04-30T23:04:17.466Z,8.68
2023-04-30T23:06:44.843Z,9.07
2023-04-30T23:09:12.803Z,8.63
2023-04-30T23:11:39.988Z,9.50
2023-04-30T23:14:07.108Z,8.05
2023-04-30T23:16:34.250Z,8.20
2023-04-30T23:19:01.479Z,9.20
2023-04-30T23:21:28.615Z,8.77
2023-04-30T23:23:55.693Z,14.15
2023-04-30T23:26:22.861Z,12.52
2023-04-30T23:28:49.974Z,8.18
2023-04-30T23:31:18.173Z,8.57
2023-04-30T23:33:45.195Z,13.10
2023-04-30T23:36:12.349Z,10.25
2023-04-30T23:38:39.537Z,11.27
2023-04-30T23:41:06.565Z,9.07
2023-04-30T23:43:33.648Z,7.93
2023-04-30T23:46:00.883Z,12.50
2023-04-30T23:48:28.064Z,10.40
2023-04-30T23:51:03.517Z,11.30
2023-04-30T23:53:31.495Z,8.95
2023-04-30T23:55:59.378Z,9.13
2023-04-30T23:58:27.832Z,9.35
